Metar z połowy godziny Komunikat METAR ze strony awiacja.imgw.pl Metar G00 EPKK METAR EPKK 230830Z 26008KT 9999 -SHRA SCT018TCU BKN030 06/02 Q1022 =